YBHIYMIA

Guest
Details From YBHI - Broken Hill
To YMIA - Mildura
Flight Number -
Tags generated
Created
Modified
Stats Distance 156 nm / 289 km
Max Altitude 17,000 ft / 5,182 m
Waypoints 4
Social Downloads 0
Likes 0
Share VATSIM

Download

Looking for another format? Having issues loading an existing format? Contact us
Advertisement - Login to hide

Notes

Basic altitude profile: - Ascent Rate: 2500ft/min - Ascent Speed: 250kts - Cruise Altitude: 35000ft - Cruise Speed: 420kts - Descent Rate: 1500ft/min - Descent Speed: 250kts Options: - Use NATs: yes - Use PACOTS: yes - Use low airways: yes - Use high airways: yes

Route

YBHI BHI J19 UVUPU YMIA

ID Type Via Altitude Latitude Longitude Leg Dist Tot Dist Heading (true) Name
O YBHI APT - 0 ft / 0 m -32.00505˚ 141.47083˚ - 0 nm - Broken Hill
BHI VOR - 100 ft / 30 m -32.00056˚ 141.47972˚ 0 nm 0 nm 59° / 59° BROKEN HILL VOR-DME
UVUPU FIX J19 (AWY-LO) 17,000 ft / 5,182 m -33.84222˚ 142.54917˚ 123 nm 123 nm 154° / 154° -
O YMIA APT - 0 ft / 0 m -34.22949˚ 142.08634˚ 32 nm 156 nm 225° / 225° Mildura

Altitude Profile

Advertisement - Login to hide

YBHI

Details ICAO YBHI (BHQ)
Name Broken Hill
Region Australia
Timezone Australia/Broken_Hill (UTC+10.5)
Stats Elevation 958 ft / 292 m (AMSL)
Location -32.005049° 141.470829°
Runways 2
Magnetic Variation 8.448° E

METAR

YBHI 151500Z AUTO 09004KT 9999 // NCD 26/10 Q1010

Decode

TAF

Not found

Departure Runways

ID Width Length Bearing (true) Bearing (mag) Surface Threshold Offset Overrun Length
05 98 ft / 30 m 8,247 ft / 2,514 m 55.76° 47.31° Asphalt 0 ft / 0 m 0 ft / 0 m
14 98 ft / 30 m 3,284 ft / 1,001 m 143.12° 134.67° Dirt 0 ft / 0 m 0 ft / 0 m
23 98 ft / 30 m 8,247 ft / 2,514 m 235.74° 227.29° Asphalt 0 ft / 0 m 0 ft / 0 m
32 98 ft / 30 m 3,284 ft / 1,001 m 323.12° 314.67° Dirt 0 ft / 0 m 0 ft / 0 m

YMIA

Details ICAO YMIA (MQL)
Name Mildura
Region Australia
Timezone Australia/Melbourne (UTC+11.0)
Stats Elevation 166 ft / 51 m (AMSL)
Location -34.229489° 142.086345°
Runways 2
Magnetic Variation 9.251° E

METAR

YMIA 151600Z AUTO 18009KT 9999 // NCD 20/06 Q1011

Decode

TAF

Not found

Destination Runways

ID Width Length Bearing (true) Bearing (mag) Surface Threshold Offset Overrun Length
09 148 ft / 45 m 5,990 ft / 1,826 m 101.71° 92.46° Asphalt 0 ft / 0 m 0 ft / 0 m
18 98 ft / 30 m 3,739 ft / 1,140 m 185.00° 175.75° Asphalt 0 ft / 0 m 0 ft / 0 m
27 148 ft / 45 m 5,990 ft / 1,826 m 281.69° 272.44° Asphalt 0 ft / 0 m 0 ft / 0 m
36 98 ft / 30 m 3,739 ft / 1,140 m 5.00° 355.75° Asphalt 0 ft / 0 m 0 ft / 0 m

Popular Alternatives